sensor_id;sensor_type;location;lat;lon;timestamp;P1;durP1;ratioP1;P2;durP2;ratioP2
67665;SDS011;54448;51.472;-2.574;2023-03-14T00:00:28;8.52;;;1.13;;
67665;SDS011;54448;51.472;-2.574;2023-03-14T00:02:53;8.13;;;0.95;;
67665;SDS011;54448;51.472;-2.574;2023-03-14T00:05:19;12.25;;;1.17;;
67665;SDS011;54448;51.472;-2.574;2023-03-14T00:07:44;8.27;;;1.15;;
67665;SDS011;54448;51.472;-2.574;2023-03-14T00:10:11;10.32;;;1.40;;
67665;SDS011;54448;51.472;-2.574;2023-03-14T00:12:38;14.65;;;1.40;;
67665;SDS011;54448;51.472;-2.574;2023-03-14T00:15:04;7.45;;;1.15;;
67665;SDS011;54448;51.472;-2.574;2023-03-14T00:17:31;14.57;;;1.77;;
67665;SDS011;54448;51.472;-2.574;2023-03-14T00:19:57;7.97;;;1.23;;
67665;SDS011;54448;51.472;-2.574;2023-03-14T00:22:28;6.18;;;1.23;;
67665;SDS011;54448;51.472;-2.574;2023-03-14T00:24:54;6.88;;;1.15;;
67665;SDS011;54448;51.472;-2.574;2023-03-14T00:27:19;12.55;;;1.70;;
67665;SDS011;54448;51.472;-2.574;2023-03-14T00:29:45;8.68;;;1.17;;
67665;SDS011;54448;51.472;-2.574;2023-03-14T00:32:10;13.57;;;1.33;;
67665;SDS011;54448;51.472;-2.574;2023-03-14T00:34:35;7.90;;;1.10;;
67665;SDS011;54448;51.472;-2.574;2023-03-14T00:37:01;9.25;;;1.13;;
67665;SDS011;54448;51.472;-2.574;2023-03-14T00:39:26;7.95;;;1.02;;
67665;SDS011;54448;51.472;-2.574;2023-03-14T00:41:51;5.63;;;1.10;;
67665;SDS011;54448;51.472;-2.574;2023-03-14T00:44:17;12.23;;;1.60;;
67665;SDS011;54448;51.472;-2.574;2023-03-14T00:46:42;16.70;;;1.45;;
67665;SDS011;54448;51.472;-2.574;2023-03-14T00:49:07;13.32;;;1.50;;
67665;SDS011;54448;51.472;-2.574;2023-03-14T00:51:33;8.32;;;1.27;;
67665;SDS011;54448;51.472;-2.574;2023-03-14T00:53:59;5.78;;;1.10;;
67665;SDS011;54448;51.472;-2.574;2023-03-14T00:56:24;13.70;;;1.85;;
67665;SDS011;54448;51.472;-2.574;2023-03-14T00:58:52;10.40;;;1.58;;
67665;SDS011;54448;51.472;-2.574;2023-03-14T01:01:18;6.25;;;1.10;;
67665;SDS011;54448;51.472;-2.574;2023-03-14T01:03:44;7.93;;;1.13;;
67665;SDS011;54448;51.472;-2.574;2023-03-14T01:06:11;11.20;;;1.27;;
67665;SDS011;54448;51.472;-2.574;2023-03-14T01:08:41;7.25;;;1.98;;
67665;SDS011;54448;51.472;-2.574;2023-03-14T01:11:08;10.65;;;1.13;;
67665;SDS011;54448;51.472;-2.574;2023-03-14T01:13:35;13.77;;;1.70;;
67665;SDS011;54448;51.472;-2.574;2023-03-14T01:16:01;8.60;;;1.45;;
67665;SDS011;54448;51.472;-2.574;2023-03-14T01:18:28;14.50;;;1.13;;
67665;SDS011;54448;51.472;-2.574;2023-03-14T01:20:53;13.27;;;1.45;;
67665;SDS011;54448;51.472;-2.574;2023-03-14T01:23:18;7.75;;;1.20;;
67665;SDS011;54448;51.472;-2.574;2023-03-14T01:25:43;12.05;;;1.33;;
67665;SDS011;54448;51.472;-2.574;2023-03-14T01:28:09;9.63;;;1.48;;
67665;SDS011;54448;51.472;-2.574;2023-03-14T01:30:34;10.27;;;1.75;;
67665;SDS011;54448;51.472;-2.574;2023-03-14T01:32:59;18.25;;;2.25;;
67665;SDS011;54448;51.472;-2.574;2023-03-14T01:35:25;8.95;;;0.98;;
67665;SDS011;54448;51.472;-2.574;2023-03-14T01:37:50;9.85;;;1.40;;
67665;SDS011;54448;51.472;-2.574;2023-03-14T01:40:15;7.50;;;1.63;;
67665;SDS011;54448;51.472;-2.574;2023-03-14T01:42:45;9.60;;;1.00;;
67665;SDS011;54448;51.472;-2.574;2023-03-14T01:45:53;14.05;;;1.23;;
67665;SDS011;54448;51.472;-2.574;2023-03-14T01:48:21;12.82;;;1.27;;
67665;SDS011;54448;51.472;-2.574;2023-03-14T01:50:47;11.63;;;1.50;;
67665;SDS011;54448;51.472;-2.574;2023-03-14T01:53:13;19.88;;;1.48;;
67665;SDS011;54448;51.472;-2.574;2023-03-14T01:55:38;9.43;;;1.42;;
67665;SDS011;54448;51.472;-2.574;2023-03-14T01:58:04;9.88;;;1.25;;
67665;SDS011;54448;51.472;-2.574;2023-03-14T02:00:30;11.32;;;1.50;;
67665;SDS011;54448;51.472;-2.574;2023-03-14T02:02:57;13.30;;;2.10;;
67665;SDS011;54448;51.472;-2.574;2023-03-14T02:05:25;15.88;;;1.55;;
67665;SDS011;54448;51.472;-2.574;2023-03-14T02:07:53;9.68;;;1.50;;
67665;SDS011;54448;51.472;-2.574;2023-03-14T02:10:22;15.18;;;1.70;;
67665;SDS011;54448;51.472;-2.574;2023-03-14T02:12:50;13.85;;;2.03;;
67665;SDS011;54448;51.472;-2.574;2023-03-14T02:15:17;10.07;;;1.40;;
67665;SDS011;54448;51.472;-2.574;2023-03-14T02:17:43;14.50;;;1.27;;
67665;SDS011;54448;51.472;-2.574;2023-03-14T02:22:35;12.02;;;1.20;;
67665;SDS011;54448;51.472;-2.574;2023-03-14T02:27:35;10.13;;;1.30;;
67665;SDS011;54448;51.472;-2.574;2023-03-14T02:30:06;11.70;;;1.50;;
67665;SDS011;54448;51.472;-2.574;2023-03-14T02:32:34;10.93;;;1.73;;
67665;SDS011;54448;51.472;-2.574;2023-03-14T02:35:04;7.60;;;1.45;;
67665;SDS011;54448;51.472;-2.574;2023-03-14T02:37:41;9.38;;;1.70;;
67665;SDS011;54448;51.472;-2.574;2023-03-14T02:40:09;15.93;;;1.50;;
67665;SDS011;54448;51.472;-2.574;2023-03-14T02:42:35;14.85;;;1.50;;
67665;SDS011;54448;51.472;-2.574;2023-03-14T02:45:25;19.70;;;1.70;;
67665;SDS011;54448;51.472;-2.574;2023-03-14T02:47:51;16.17;;;1.80;;
67665;SDS011;54448;51.472;-2.574;2023-03-14T02:50:20;15.70;;;1.92;;
67665;SDS011;54448;51.472;-2.574;2023-03-14T02:52:47;9.98;;;1.42;;
67665;SDS011;54448;51.472;-2.574;2023-03-14T02:55:13;12.05;;;1.38;;
67665;SDS011;54448;51.472;-2.574;2023-03-14T02:57:38;11.02;;;1.40;;
67665;SDS011;54448;51.472;-2.574;2023-03-14T03:00:04;17.23;;;1.80;;
67665;SDS011;54448;51.472;-2.574;2023-03-14T03:02:30;11.07;;;1.52;;
67665;SDS011;54448;51.472;-2.574;2023-03-14T03:04:56;9.48;;;1.48;;
67665;SDS011;54448;51.472;-2.574;2023-03-14T03:07:21;10.93;;;1.02;;
67665;SDS011;54448;51.472;-2.574;2023-03-14T03:09:46;11.30;;;1.75;;
67665;SDS011;54448;51.472;-2.574;2023-03-14T03:12:12;15.63;;;2.13;;
67665;SDS011;54448;51.472;-2.574;2023-03-14T03:14:37;12.35;;;1.50;;
67665;SDS011;54448;51.472;-2.574;2023-03-14T03:17:03;14.20;;;1.67;;
67665;SDS011;54448;51.472;-2.574;2023-03-14T03:19:29;15.38;;;1.33;;
67665;SDS011;54448;51.472;-2.574;2023-03-14T03:21:55;15.63;;;1.35;;
67665;SDS011;54448;51.472;-2.574;2023-03-14T03:24:20;16.58;;;1.67;;
67665;SDS011;54448;51.472;-2.574;2023-03-14T03:26:46;13.77;;;1.58;;
67665;SDS011;54448;51.472;-2.574;2023-03-14T03:29:11;6.22;;;1.08;;
67665;SDS011;54448;51.472;-2.574;2023-03-14T03:31:37;15.68;;;1.38;;
67665;SDS011;54448;51.472;-2.574;2023-03-14T03:34:03;11.77;;;1.67;;
67665;SDS011;54448;51.472;-2.574;2023-03-14T03:36:28;13.63;;;1.55;;
67665;SDS011;54448;51.472;-2.574;2023-03-14T03:38:53;13.07;;;1.67;;
67665;SDS011;54448;51.472;-2.574;2023-03-14T03:41:19;20.48;;;1.80;;
67665;SDS011;54448;51.472;-2.574;2023-03-14T03:43:44;8.57;;;1.42;;
67665;SDS011;54448;51.472;-2.574;2023-03-14T03:46:10;10.25;;;1.48;;
67665;SDS011;54448;51.472;-2.574;2023-03-14T03:48:35;12.55;;;1.25;;
67665;SDS011;54448;51.472;-2.574;2023-03-14T03:51:01;7.20;;;1.00;;
67665;SDS011;54448;51.472;-2.574;2023-03-14T03:53:26;12.15;;;2.28;;
67665;SDS011;54448;51.472;-2.574;2023-03-14T03:55:51;20.55;;;2.38;;
67665;SDS011;54448;51.472;-2.574;2023-03-14T03:58:17;19.27;;;1.70;;
67665;SDS011;54448;51.472;-2.574;2023-03-14T04:00:42;15.40;;;1.70;;
67665;SDS011;54448;51.472;-2.574;2023-03-14T04:03:08;15.15;;;1.83;;
67665;SDS011;54448;51.472;-2.574;2023-03-14T04:05:33;15.82;;;1.90;;
67665;SDS011;54448;51.472;-2.574;2023-03-14T04:07:59;8.50;;;1.30;;
67665;SDS011;54448;51.472;-2.574;2023-03-14T04:10:24;17.33;;;1.42;;
67665;SDS011;54448;51.472;-2.574;2023-03-14T04:12:50;9.73;;;1.60;;
67665;SDS011;54448;51.472;-2.574;2023-03-14T04:15:15;20.10;;;1.52;;
67665;SDS011;54448;51.472;-2.574;2023-03-14T04:17:41;8.73;;;1.27;;
67665;SDS011;54448;51.472;-2.574;2023-03-14T04:20:06;21.85;;;1.70;;
67665;SDS011;54448;51.472;-2.574;2023-03-14T04:22:35;10.35;;;1.48;;
67665;SDS011;54448;51.472;-2.574;2023-03-14T04:25:01;9.98;;;1.70;;
67665;SDS011;54448;51.472;-2.574;2023-03-14T04:27:28;13.93;;;1.42;;
67665;SDS011;54448;51.472;-2.574;2023-03-14T04:29:53;11.32;;;1.65;;
67665;SDS011;54448;51.472;-2.574;2023-03-14T04:32:19;11.73;;;1.27;;
67665;SDS011;54448;51.472;-2.574;2023-03-14T04:34:44;16.90;;;1.60;;
67665;SDS011;54448;51.472;-2.574;2023-03-14T04:37:10;15.90;;;1.65;;
67665;SDS011;54448;51.472;-2.574;2023-03-14T04:39:35;17.40;;;1.70;;
67665;SDS011;54448;51.472;-2.574;2023-03-14T04:42:01;11.85;;;1.48;;
67665;SDS011;54448;51.472;-2.574;2023-03-14T04:44:26;12.10;;;2.00;;
67665;SDS011;54448;51.472;-2.574;2023-03-14T04:46:51;6.40;;;0.70;;
67665;SDS011;54448;51.472;-2.574;2023-03-14T04:49:17;14.35;;;1.40;;
67665;SDS011;54448;51.472;-2.574;2023-03-14T04:51:42;15.80;;;1.75;;
67665;SDS011;54448;51.472;-2.574;2023-03-14T04:54:07;17.27;;;1.83;;
67665;SDS011;54448;51.472;-2.574;2023-03-14T04:56:33;15.68;;;1.55;;
67665;SDS011;54448;51.472;-2.574;2023-03-14T04:58:58;9.63;;;1.27;;
67665;SDS011;54448;51.472;-2.574;2023-03-14T05:01:24;5.00;;;0.90;;
67665;SDS011;54448;51.472;-2.574;2023-03-14T05:03:49;6.50;;;1.05;;
67665;SDS011;54448;51.472;-2.574;2023-03-14T05:06:14;9.25;;;1.25;;
67665;SDS011;54448;51.472;-2.574;2023-03-14T05:08:40;13.68;;;1.10;;
67665;SDS011;54448;51.472;-2.574;2023-03-14T05:11:05;13.93;;;1.48;;
67665;SDS011;54448;51.472;-2.574;2023-03-14T05:13:31;9.73;;;1.50;;
67665;SDS011;54448;51.472;-2.574;2023-03-14T05:16:17;16.25;;;2.38;;
67665;SDS011;54448;51.472;-2.574;2023-03-14T05:18:41;12.15;;;1.60;;
67665;SDS011;54448;51.472;-2.574;2023-03-14T05:21:07;17.33;;;1.48;;
67665;SDS011;54448;51.472;-2.574;2023-03-14T05:23:32;12.68;;;1.75;;
67665;SDS011;54448;51.472;-2.574;2023-03-14T05:25:59;11.10;;;1.58;;
67665;SDS011;54448;51.472;-2.574;2023-03-14T05:28:24;18.20;;;1.52;;
67665;SDS011;54448;51.472;-2.574;2023-03-14T05:30:50;17.02;;;1.77;;
67665;SDS011;54448;51.472;-2.574;2023-03-14T05:33:15;11.40;;;1.52;;
67665;SDS011;54448;51.472;-2.574;2023-03-14T05:35:41;8.93;;;1.30;;
67665;SDS011;54448;51.472;-2.574;2023-03-14T05:38:07;13.20;;;1.63;;
67665;SDS011;54448;51.472;-2.574;2023-03-14T05:40:32;19.00;;;1.42;;
67665;SDS011;54448;51.472;-2.574;2023-03-14T05:42:57;10.25;;;1.15;;
67665;SDS011;54448;51.472;-2.574;2023-03-14T05:45:23;10.32;;;0.90;;
67665;SDS011;54448;51.472;-2.574;2023-03-14T05:47:48;9.70;;;1.25;;
67665;SDS011;54448;51.472;-2.574;2023-03-14T05:50:14;14.07;;;0.95;;
67665;SDS011;54448;51.472;-2.574;2023-03-14T05:52:39;8.27;;;1.15;;
67665;SDS011;54448;51.472;-2.574;2023-03-14T05:55:05;4.15;;;1.20;;
67665;SDS011;54448;51.472;-2.574;2023-03-14T05:57:30;11.77;;;1.45;;
67665;SDS011;54448;51.472;-2.574;2023-03-14T05:59:55;4.28;;;1.08;;
67665;SDS011;54448;51.472;-2.574;2023-03-14T06:02:21;14.10;;;1.48;;
67665;SDS011;54448;51.472;-2.574;2023-03-14T06:04:46;9.23;;;0.95;;
67665;SDS011;54448;51.472;-2.574;2023-03-14T06:07:12;6.22;;;1.25;;
67665;SDS011;54448;51.472;-2.574;2023-03-14T06:09:37;9.88;;;1.42;;
67665;SDS011;54448;51.472;-2.574;2023-03-14T06:12:04;5.47;;;1.08;;
67665;SDS011;54448;51.472;-2.574;2023-03-14T06:14:30;12.27;;;1.45;;
67665;SDS011;54448;51.472;-2.574;2023-03-14T06:16:55;17.50;;;1.63;;
67665;SDS011;54448;51.472;-2.574;2023-03-14T06:19:20;9.52;;;1.38;;
67665;SDS011;54448;51.472;-2.574;2023-03-14T06:21:46;14.02;;;2.25;;
67665;SDS011;54448;51.472;-2.574;2023-03-14T06:24:11;5.75;;;1.10;;
67665;SDS011;54448;51.472;-2.574;2023-03-14T06:26:37;12.35;;;3.42;;
67665;SDS011;54448;51.472;-2.574;2023-03-14T06:29:02;14.18;;;1.83;;
67665;SDS011;54448;51.472;-2.574;2023-03-14T06:31:31;13.32;;;1.52;;
67665;SDS011;54448;51.472;-2.574;2023-03-14T06:33:57;8.65;;;1.30;;
67665;SDS011;54448;51.472;-2.574;2023-03-14T06:36:22;10.02;;;1.38;;
67665;SDS011;54448;51.472;-2.574;2023-03-14T06:38:48;9.63;;;1.10;;
67665;SDS011;54448;51.472;-2.574;2023-03-14T06:41:13;11.15;;;1.15;;
67665;SDS011;54448;51.472;-2.574;2023-03-14T06:43:39;11.85;;;1.48;;
67665;SDS011;54448;51.472;-2.574;2023-03-14T06:46:04;9.63;;;1.35;;
67665;SDS011;54448;51.472;-2.574;2023-03-14T06:48:30;17.65;;;2.75;;
67665;SDS011;54448;51.472;-2.574;2023-03-14T06:50:55;12.25;;;1.52;;
67665;SDS011;54448;51.472;-2.574;2023-03-14T06:53:20;11.90;;;1.33;;
67665;SDS011;54448;51.472;-2.574;2023-03-14T06:55:46;17.63;;;1.33;;
67665;SDS011;54448;51.472;-2.574;2023-03-14T06:58:11;11.65;;;1.25;;
67665;SDS011;54448;51.472;-2.574;2023-03-14T07:00:37;7.05;;;1.30;;
67665;SDS011;54448;51.472;-2.574;2023-03-14T07:03:02;10.02;;;1.10;;
67665;SDS011;54448;51.472;-2.574;2023-03-14T07:05:27;9.93;;;1.27;;
67665;SDS011;54448;51.472;-2.574;2023-03-14T07:07:53;15.25;;;1.50;;
67665;SDS011;54448;51.472;-2.574;2023-03-14T07:10:18;10.80;;;1.13;;
67665;SDS011;54448;51.472;-2.574;2023-03-14T07:12:44;12.32;;;1.70;;
67665;SDS011;54448;51.472;-2.574;2023-03-14T07:15:09;18.92;;;1.35;;
67665;SDS011;54448;51.472;-2.574;2023-03-14T07:17:35;14.77;;;1.30;;
67665;SDS011;54448;51.472;-2.574;2023-03-14T07:20:00;7.43;;;1.20;;
67665;SDS011;54448;51.472;-2.574;2023-03-14T07:22:26;5.85;;;0.80;;
67665;SDS011;54448;51.472;-2.574;2023-03-14T07:24:51;7.85;;;1.80;;
67665;SDS011;54448;51.472;-2.574;2023-03-14T07:27:16;11.15;;;1.63;;
67665;SDS011;54448;51.472;-2.574;2023-03-14T07:29:42;8.45;;;1.20;;
67665;SDS011;54448;51.472;-2.574;2023-03-14T07:32:07;12.73;;;0.95;;
67665;SDS011;54448;51.472;-2.574;2023-03-14T07:34:33;13.73;;;1.65;;
67665;SDS011;54448;51.472;-2.574;2023-03-14T07:36:58;12.13;;;1.52;;
67665;SDS011;54448;51.472;-2.574;2023-03-14T07:39:24;11.35;;;1.27;;
67665;SDS011;54448;51.472;-2.574;2023-03-14T07:41:49;10.20;;;1.40;;
67665;SDS011;54448;51.472;-2.574;2023-03-14T07:44:14;15.57;;;1.52;;
67665;SDS011;54448;51.472;-2.574;2023-03-14T07:46:40;10.45;;;1.05;;
67665;SDS011;54448;51.472;-2.574;2023-03-14T07:49:05;7.07;;;1.10;;
67665;SDS011;54448;51.472;-2.574;2023-03-14T07:51:30;17.77;;;1.58;;
67665;SDS011;54448;51.472;-2.574;2023-03-14T07:53:56;16.20;;;2.38;;
67665;SDS011;54448;51.472;-2.574;2023-03-14T07:56:21;6.15;;;1.13;;
67665;SDS011;54448;51.472;-2.574;2023-03-14T07:58:46;12.50;;;1.70;;
67665;SDS011;54448;51.472;-2.574;2023-03-14T08:01:12;15.68;;;1.45;;
67665;SDS011;54448;51.472;-2.574;2023-03-14T08:03:37;7.85;;;1.60;;
67665;SDS011;54448;51.472;-2.574;2023-03-14T08:06:03;15.52;;;1.30;;
67665;SDS011;54448;51.472;-2.574;2023-03-14T08:08:28;10.13;;;1.02;;
67665;SDS011;54448;51.472;-2.574;2023-03-14T08:10:53;12.10;;;1.10;;
67665;SDS011;54448;51.472;-2.574;2023-03-14T08:13:19;15.45;;;1.40;;
67665;SDS011;54448;51.472;-2.574;2023-03-14T08:15:47;19.75;;;6.80;;
67665;SDS011;54448;51.472;-2.574;2023-03-14T08:18:14;10.77;;;1.45;;
67665;SDS011;54448;51.472;-2.574;2023-03-14T08:20:39;6.80;;;1.08;;
67665;SDS011;54448;51.472;-2.574;2023-03-14T08:23:05;12.23;;;1.70;;
67665;SDS011;54448;51.472;-2.574;2023-03-14T08:25:30;3.25;;;0.63;;
67665;SDS011;54448;51.472;-2.574;2023-03-14T08:27:55;11.55;;;1.58;;
67665;SDS011;54448;51.472;-2.574;2023-03-14T08:30:21;9.15;;;1.30;;
67665;SDS011;54448;51.472;-2.574;2023-03-14T08:32:47;5.75;;;1.30;;
67665;SDS011;54448;51.472;-2.574;2023-03-14T08:35:13;9.77;;;1.60;;
67665;SDS011;54448;51.472;-2.574;2023-03-14T08:37:39;12.63;;;1.85;;
67665;SDS011;54448;51.472;-2.574;2023-03-14T08:40:05;6.90;;;1.33;;
67665;SDS011;54448;51.472;-2.574;2023-03-14T08:42:35;6.75;;;1.42;;
67665;SDS011;54448;51.472;-2.574;2023-03-14T08:45:04;5.30;;;0.93;;
67665;SDS011;54448;51.472;-2.574;2023-03-14T08:47:30;6.70;;;0.90;;
67665;SDS011;54448;51.472;-2.574;2023-03-14T08:49:55;6.90;;;1.10;;
67665;SDS011;54448;51.472;-2.574;2023-03-14T08:52:21;5.20;;;1.30;;
67665;SDS011;54448;51.472;-2.574;2023-03-14T08:54:46;3.30;;;0.98;;
67665;SDS011;54448;51.472;-2.574;2023-03-14T08:57:12;3.30;;;1.02;;
67665;SDS011;54448;51.472;-2.574;2023-03-14T08:59:37;3.08;;;0.95;;
67665;SDS011;54448;51.472;-2.574;2023-03-14T09:02:03;2.88;;;1.30;;
67665;SDS011;54448;51.472;-2.574;2023-03-14T09:04:29;4.00;;;1.52;;
67665;SDS011;54448;51.472;-2.574;2023-03-14T09:06:55;2.78;;;0.90;;
67665;SDS011;54448;51.472;-2.574;2023-03-14T09:09:22;0.98;;;0.55;;
67665;SDS011;54448;51.472;-2.574;2023-03-14T09:11:48;4.25;;;0.90;;
67665;SDS011;54448;51.472;-2.574;2023-03-14T09:14:14;1.77;;;0.80;;
67665;SDS011;54448;51.472;-2.574;2023-03-14T09:16:40;3.33;;;0.90;;
67665;SDS011;54448;51.472;-2.574;2023-03-14T09:19:05;1.45;;;0.82;;
67665;SDS011;54448;51.472;-2.574;2023-03-14T09:21:30;3.25;;;1.10;;
67665;SDS011;54448;51.472;-2.574;2023-03-14T09:23:56;3.63;;;1.15;;
67665;SDS011;54448;51.472;-2.574;2023-03-14T09:26:21;4.68;;;1.10;;
67665;SDS011;54448;51.472;-2.574;2023-03-14T09:28:46;2.17;;;1.10;;
67665;SDS011;54448;51.472;-2.574;2023-03-14T09:31:12;4.10;;;1.10;;
67665;SDS011;54448;51.472;-2.574;2023-03-14T09:33:38;4.25;;;1.15;;
67665;SDS011;54448;51.472;-2.574;2023-03-14T09:36:03;4.90;;;1.15;;
67665;SDS011;54448;51.472;-2.574;2023-03-14T09:38:29;2.15;;;1.08;;
67665;SDS011;54448;51.472;-2.574;2023-03-14T09:40:54;22.25;;;3.58;;
67665;SDS011;54448;51.472;-2.574;2023-03-14T09:43:23;5.97;;;1.30;;
67665;SDS011;54448;51.472;-2.574;2023-03-14T09:45:49;2.25;;;0.85;;
67665;SDS011;54448;51.472;-2.574;2023-03-14T09:48:17;1.67;;;0.88;;
67665;SDS011;54448;51.472;-2.574;2023-03-14T09:50:50;3.33;;;1.35;;
67665;SDS011;54448;51.472;-2.574;2023-03-14T09:53:18;2.58;;;0.90;;
67665;SDS011;54448;51.472;-2.574;2023-03-14T09:55:48;2.80;;;1.00;;
67665;SDS011;54448;51.472;-2.574;2023-03-14T09:58:21;1.73;;;0.95;;
67665;SDS011;54448;51.472;-2.574;2023-03-14T10:00:52;3.25;;;1.10;;
67665;SDS011;54448;51.472;-2.574;2023-03-14T10:03:26;2.80;;;0.90;;
67665;SDS011;54448;51.472;-2.574;2023-03-14T10:05:55;1.40;;;0.90;;
67665;SDS011;54448;51.472;-2.574;2023-03-14T10:08:21;6.07;;;1.00;;
67665;SDS011;54448;51.472;-2.574;2023-03-14T10:10:46;3.20;;;0.90;;
67665;SDS011;54448;51.472;-2.574;2023-03-14T10:13:19;2.10;;;1.60;;
67665;SDS011;54448;51.472;-2.574;2023-03-14T10:15:53;3.03;;;1.02;;
67665;SDS011;54448;51.472;-2.574;2023-03-14T10:18:19;1.63;;;0.90;;
67665;SDS011;54448;51.472;-2.574;2023-03-14T10:20:45;1.40;;;0.80;;
67665;SDS011;54448;51.472;-2.574;2023-03-14T10:25:39;2.35;;;0.85;;
67665;SDS011;54448;51.472;-2.574;2023-03-14T10:28:26;7.22;;;1.00;;
67665;SDS011;54448;51.472;-2.574;2023-03-14T10:30:52;1.00;;;0.60;;
67665;SDS011;54448;51.472;-2.574;2023-03-14T10:35:43;1.85;;;0.60;;
67665;SDS011;54448;51.472;-2.574;2023-03-14T10:38:12;2.75;;;0.68;;
67665;SDS011;54448;51.472;-2.574;2023-03-14T10:40:41;1.55;;;0.60;;
67665;SDS011;54448;51.472;-2.574;2023-03-14T10:43:15;4.07;;;0.60;;
67665;SDS011;54448;51.472;-2.574;2023-03-14T10:45:43;2.25;;;0.60;;
67665;SDS011;54448;51.472;-2.574;2023-03-14T10:48:18;0.88;;;0.50;;
67665;SDS011;54448;51.472;-2.574;2023-03-14T10:51:10;1.13;;;0.40;;
67665;SDS011;54448;51.472;-2.574;2023-03-14T10:53:44;2.55;;;0.60;;
67665;SDS011;54448;51.472;-2.574;2023-03-14T10:56:15;1.90;;;0.63;;
67665;SDS011;54448;51.472;-2.574;2023-03-14T10:58:46;1.05;;;0.60;;
67665;SDS011;54448;51.472;-2.574;2023-03-14T11:07:03;1.48;;;0.40;;
67665;SDS011;54448;51.472;-2.574;2023-03-14T11:17:52;1.00;;;0.35;;
67665;SDS011;54448;51.472;-2.574;2023-03-14T11:28:59;1.98;;;0.47;;
67665;SDS011;54448;51.472;-2.574;2023-03-14T11:31:33;0.93;;;0.30;;
67665;SDS011;54448;51.472;-2.574;2023-03-14T11:34:01;3.35;;;0.65;;
67665;SDS011;54448;51.472;-2.574;2023-03-14T11:36:41;1.25;;;0.45;;
67665;SDS011;54448;51.472;-2.574;2023-03-14T11:39:18;2.25;;;0.52;;
67665;SDS011;54448;51.472;-2.574;2023-03-14T11:41:48;2.38;;;0.80;;
67665;SDS011;54448;51.472;-2.574;2023-03-14T11:44:19;4.07;;;0.77;;
67665;SDS011;54448;51.472;-2.574;2023-03-14T11:46:48;1.23;;;0.40;;
67665;SDS011;54448;51.472;-2.574;2023-03-14T11:51:47;1.08;;;0.40;;
67665;SDS011;54448;51.472;-2.574;2023-03-14T11:54:34;1.40;;;0.50;;
67665;SDS011;54448;51.472;-2.574;2023-03-14T11:57:05;2.45;;;0.65;;
67665;SDS011;54448;51.472;-2.574;2023-03-14T12:02:22;4.43;;;0.60;;
67665;SDS011;54448;51.472;-2.574;2023-03-14T12:07:34;7.63;;;1.15;;
67665;SDS011;54448;51.472;-2.574;2023-03-14T12:10:05;2.42;;;0.50;;
67665;SDS011;54448;51.472;-2.574;2023-03-14T12:12:31;3.47;;;0.80;;
67665;SDS011;54448;51.472;-2.574;2023-03-14T12:15:00;1.50;;;0.50;;
67665;SDS011;54448;51.472;-2.574;2023-03-14T12:17:35;0.95;;;0.40;;
67665;SDS011;54448;51.472;-2.574;2023-03-14T12:20:12;5.93;;;0.90;;
67665;SDS011;54448;51.472;-2.574;2023-03-14T12:22:44;3.33;;;0.52;;
67665;SDS011;54448;51.472;-2.574;2023-03-14T12:38:23;3.65;;;0.60;;
67665;SDS011;54448;51.472;-2.574;2023-03-14T12:41:17;4.88;;;0.98;;
67665;SDS011;54448;51.472;-2.574;2023-03-14T12:43:45;2.35;;;0.68;;
67665;SDS011;54448;51.472;-2.574;2023-03-14T12:46:21;2.97;;;0.80;;
67665;SDS011;54448;51.472;-2.574;2023-03-14T12:51:18;3.88;;;0.70;;
67665;SDS011;54448;51.472;-2.574;2023-03-14T12:56:24;5.78;;;0.85;;
67665;SDS011;54448;51.472;-2.574;2023-03-14T13:01:28;6.65;;;0.70;;
67665;SDS011;54448;51.472;-2.574;2023-03-14T13:03:55;3.75;;;0.93;;
67665;SDS011;54448;51.472;-2.574;2023-03-14T13:11:54;6.95;;;1.10;;
67665;SDS011;54448;51.472;-2.574;2023-03-14T13:14:47;6.10;;;1.23;;
67665;SDS011;54448;51.472;-2.574;2023-03-14T13:17:14;3.50;;;0.90;;
67665;SDS011;54448;51.472;-2.574;2023-03-14T13:19:40;6.93;;;1.23;;
67665;SDS011;54448;51.472;-2.574;2023-03-14T13:22:22;8.13;;;0.90;;
67665;SDS011;54448;51.472;-2.574;2023-03-14T13:24:50;5.20;;;0.80;;
67665;SDS011;54448;51.472;-2.574;2023-03-14T13:27:24;3.50;;;0.77;;
67665;SDS011;54448;51.472;-2.574;2023-03-14T13:29:50;6.00;;;1.05;;
67665;SDS011;54448;51.472;-2.574;2023-03-14T13:32:17;3.53;;;0.85;;
67665;SDS011;54448;51.472;-2.574;2023-03-14T13:34:46;6.70;;;0.90;;
67665;SDS011;54448;51.472;-2.574;2023-03-14T13:37:17;3.42;;;0.80;;
67665;SDS011;54448;51.472;-2.574;2023-03-14T13:39:48;8.60;;;1.30;;
67665;SDS011;54448;51.472;-2.574;2023-03-14T13:42:24;5.80;;;1.10;;
67665;SDS011;54448;51.472;-2.574;2023-03-14T13:44:51;3.72;;;0.85;;
67665;SDS011;54448;51.472;-2.574;2023-03-14T13:47:18;7.15;;;1.20;;
67665;SDS011;54448;51.472;-2.574;2023-03-14T13:49:45;6.15;;;0.85;;
67665;SDS011;54448;51.472;-2.574;2023-03-14T13:52:24;5.47;;;1.20;;
67665;SDS011;54448;51.472;-2.574;2023-03-14T13:54:54;8.93;;;1.30;;
67665;SDS011;54448;51.472;-2.574;2023-03-14T13:57:20;3.05;;;1.00;;
67665;SDS011;54448;51.472;-2.574;2023-03-14T14:00:16;6.70;;;1.02;;
67665;SDS011;54448;51.472;-2.574;2023-03-14T14:02:42;7.18;;;1.15;;
67665;SDS011;54448;51.472;-2.574;2023-03-14T14:05:10;7.18;;;1.20;;
67665;SDS011;54448;51.472;-2.574;2023-03-14T14:07:36;6.40;;;1.13;;
67665;SDS011;54448;51.472;-2.574;2023-03-14T14:10:03;3.63;;;1.02;;
67665;SDS011;54448;51.472;-2.574;2023-03-14T14:12:37;12.52;;;1.60;;
67665;SDS011;54448;51.472;-2.574;2023-03-14T14:15:23;7.68;;;1.45;;
67665;SDS011;54448;51.472;-2.574;2023-03-14T14:17:54;11.73;;;1.55;;
67665;SDS011;54448;51.472;-2.574;2023-03-14T14:20:39;12.02;;;1.65;;
67665;SDS011;54448;51.472;-2.574;2023-03-14T14:23:12;9.73;;;1.67;;
67665;SDS011;54448;51.472;-2.574;2023-03-14T14:25:39;10.40;;;1.50;;
67665;SDS011;54448;51.472;-2.574;2023-03-14T14:28:20;9.95;;;1.70;;
67665;SDS011;54448;51.472;-2.574;2023-03-14T14:30:47;15.68;;;1.50;;
67665;SDS011;54448;51.472;-2.574;2023-03-14T14:38:59;15.18;;;1.85;;
67665;SDS011;54448;51.472;-2.574;2023-03-14T14:41:26;16.85;;;1.98;;
67665;SDS011;54448;51.472;-2.574;2023-03-14T14:43:53;13.25;;;1.90;;
67665;SDS011;54448;51.472;-2.574;2023-03-14T14:46:19;6.53;;;1.23;;
67665;SDS011;54448;51.472;-2.574;2023-03-14T14:48:45;10.90;;;1.48;;
67665;SDS011;54448;51.472;-2.574;2023-03-14T14:51:22;7.85;;;1.33;;
67665;SDS011;54448;51.472;-2.574;2023-03-14T14:54:02;17.45;;;2.50;;
67665;SDS011;54448;51.472;-2.574;2023-03-14T14:56:30;13.73;;;1.98;;
67665;SDS011;54448;51.472;-2.574;2023-03-14T14:59:00;13.15;;;2.05;;
67665;SDS011;54448;51.472;-2.574;2023-03-14T15:01:46;11.10;;;1.70;;
67665;SDS011;54448;51.472;-2.574;2023-03-14T15:04:12;18.75;;;2.40;;
67665;SDS011;54448;51.472;-2.574;2023-03-14T15:06:40;14.63;;;2.22;;
67665;SDS011;54448;51.472;-2.574;2023-03-14T15:09:08;20.05;;;2.45;;
67665;SDS011;54448;51.472;-2.574;2023-03-14T15:11:35;12.38;;;1.83;;
67665;SDS011;54448;51.472;-2.574;2023-03-14T15:14:00;7.90;;;1.25;;
67665;SDS011;54448;51.472;-2.574;2023-03-14T15:16:29;11.07;;;1.48;;
67665;SDS011;54448;51.472;-2.574;2023-03-14T15:18:56;9.88;;;1.40;;
67665;SDS011;54448;51.472;-2.574;2023-03-14T15:21:24;15.10;;;1.52;;
67665;SDS011;54448;51.472;-2.574;2023-03-14T15:23:50;12.73;;;1.35;;
67665;SDS011;54448;51.472;-2.574;2023-03-14T15:26:19;8.73;;;1.50;;
67665;SDS011;54448;51.472;-2.574;2023-03-14T15:28:47;9.35;;;1.23;;
67665;SDS011;54448;51.472;-2.574;2023-03-14T15:31:14;8.60;;;1.20;;
67665;SDS011;54448;51.472;-2.574;2023-03-14T15:33:40;7.55;;;1.63;;
67665;SDS011;54448;51.472;-2.574;2023-03-14T15:36:06;7.13;;;1.33;;
67665;SDS011;54448;51.472;-2.574;2023-03-14T15:38:44;6.95;;;1.20;;
67665;SDS011;54448;51.472;-2.574;2023-03-14T15:41:09;7.15;;;0.93;;
67665;SDS011;54448;51.472;-2.574;2023-03-14T15:43:35;8.98;;;2.20;;